Time;durP1;ratioP1;P1;durP2;ratioP2;P2;SDS_P1;SDS_P2;PMS_P1;PMS_P2;Temp;Humidity;BMP_temperature;BMP_pressure;BME280_temperature;BME280_humidity;BME280_pressure;Samples;Min_cycle;Max_cycle;Signal;HPM_P1;HPM_P2
2021/03/16 00:00:18;;;;;;;3.17;2.97;;;;;;;6.05;71.88;100470.94;682830;28;137427;-61
2021/03/16 00:00:57;;;;;;;3.10;2.90;;;;;;;6.05;71.90;100470.94;682759;28;138396;-62
2021/03/16 00:01:38;;;;;;;3.67;2.70;;;;;;;6.06;72.06;100479.81;684170;28;129381;-61
2021/03/16 00:02:02;;;;;;;2.88;2.70;;;;;;;6.04;71.92;100471.91;683413;28;115978;-61
2021/03/16 00:02:23;;;;;;;3.22;3.03;;;;;;;6.04;72.09;100477.28;686791;28;22877;-61
2021/03/16 00:02:47;;;;;;;3.08;2.78;;;;;;;6.02;72.08;100475.72;683655;28;92057;-60
2021/03/16 00:03:08;;;;;;;3.15;2.95;;;;;;;6.03;71.84;100480.94;686896;28;18045;-61
2021/03/16 00:03:39;;;;;;;2.67;2.50;;;;;;;6.02;71.76;100478.41;679737;28;138550;-61
2021/03/16 00:04:17;;;;;;;2.90;2.70;;;;;;;6.00;72.11;100472.38;684003;28;128867;-61
2021/03/16 00:04:58;;;;;;;2.75;2.55;;;;;;;6.02;72.30;100481.09;682290;28;137524;-60
2021/03/16 00:05:23;;;;;;;2.90;2.70;;;;;;;6.02;72.02;100487.31;682867;28;116153;-61
2021/03/16 00:05:44;;;;;;;3.28;2.97;;;;;;;6.02;72.13;100476.59;685861;28;21525;-61
2021/03/16 00:06:06;;;;;;;3.20;2.95;;;;;;;6.02;72.24;100479.28;686835;28;22367;-61
2021/03/16 00:06:27;;;;;;;3.00;2.80;;;;;;;6.04;72.19;100479.13;686241;28;46320;-62
2021/03/16 00:06:48;;;;;;;3.00;2.80;;;;;;;6.00;72.01;100473.22;688046;28;21072;-60
2021/03/16 00:07:09;;;;;;;3.00;2.80;;;;;;;6.03;72.22;100480.13;685917;28;23435;-59
2021/03/16 00:07:31;;;;;;;2.63;2.53;;;;;;;6.03;72.25;100489.00;686803;28;22371;-62
2021/03/16 00:07:53;;;;;;;2.95;2.75;;;;;;;6.01;71.98;100485.63;688870;28;1167;-61
2021/03/16 00:08:14;;;;;;;3.00;2.80;;;;;;;6.01;72.08;100491.00;688996;28;23446;-62
2021/03/16 00:08:35;;;;;;;3.00;2.80;;;;;;;6.01;72.05;100482.94;690346;28;820;-59
2021/03/16 00:08:56;;;;;;;2.80;2.60;;;;;;;6.01;71.95;100482.94;688769;28;22473;-62
2021/03/16 00:09:17;;;;;;;2.95;2.75;;;;;;;6.01;71.66;100485.63;687322;28;12382;-60
2021/03/16 00:09:41;;;;;;;3.17;2.97;;;;;;;6.01;72.31;100476.75;688017;28;4711;-61
2021/03/16 00:10:02;;;;;;;3.10;2.90;;;;;;;6.02;71.95;100484.66;686842;28;11786;-60
2021/03/16 00:10:24;;;;;;;2.95;2.75;;;;;;;6.02;72.05;100490.00;687038;28;22507;-59
2021/03/16 00:10:45;;;;;;;3.13;2.92;;;;;;;6.01;72.03;100479.44;686356;28;25841;-61
2021/03/16 00:11:06;;;;;;;3.20;2.97;;;;;;;5.99;71.69;100482.28;687037;28;23666;-60
2021/03/16 00:11:27;;;;;;;3.00;2.80;;;;;;;6.01;71.76;100488.31;686866;28;22428;-60
2021/03/16 00:11:49;;;;;;;3.00;2.80;;;;;;;6.02;71.95;100489.13;687207;28;4305;-61
2021/03/16 00:12:10;;;;;;;3.08;2.88;;;;;;;6.01;71.87;100485.63;687105;28;46399;-61
2021/03/16 00:12:31;;;;;;;2.90;2.70;;;;;;;6.01;71.85;100485.63;687303;28;14430;-61
2021/03/16 00:12:52;;;;;;;2.88;2.67;;;;;;;6.01;71.90;100482.13;687201;28;20785;-62
2021/03/16 00:13:14;;;;;;;3.20;2.92;;;;;;;6.02;71.88;100489.13;687085;28;19801;-61
2021/03/16 00:13:35;;;;;;;3.40;3.10;;;;;;;6.03;71.94;100498.88;685855;28;39174;-62
2021/03/16 00:13:56;;;;;;;2.95;2.75;;;;;;;6.03;72.26;100490.84;687251;28;16152;-61
2021/03/16 00:14:17;;;;;;;3.05;2.85;;;;;;;6.04;71.88;100493.38;687334;28;19170;-61
2021/03/16 00:14:39;;;;;;;3.10;2.90;;;;;;;6.04;72.14;100492.53;688110;28;23441;-61
2021/03/16 00:15:00;;;;;;;2.92;2.72;;;;;;;6.04;71.81;100487.16;685595;28;45375;-61
2021/03/16 00:15:21;;;;;;;3.08;2.67;;;;;;;6.04;72.08;100493.38;686823;28;23628;-61
2021/03/16 00:15:42;;;;;;;2.80;2.50;;;;;;;6.05;71.79;100491.50;686889;28;14135;-62
2021/03/16 00:16:04;;;;;;;2.67;2.53;;;;;;;6.05;71.80;100492.38;686507;28;23422;-62
2021/03/16 00:16:26;;;;;;;3.15;2.95;;;;;;;6.05;71.79;100489.69;686078;28;44297;-61
2021/03/16 00:16:47;;;;;;;3.08;2.88;;;;;;;6.05;71.87;100500.41;685690;28;45335;-61
2021/03/16 00:17:08;;;;;;;3.00;2.80;;;;;;;6.03;71.65;100494.34;688447;28;10081;-62
2021/03/16 00:17:29;;;;;;;3.10;2.90;;;;;;;6.01;71.56;100496.34;686650;28;22426;-59
2021/03/16 00:17:50;;;;;;;2.90;2.70;;;;;;;6.02;71.55;100498.03;686762;28;23559;-62
2021/03/16 00:18:14;;;;;;;2.97;2.78;;;;;;;6.02;71.56;100489.13;687182;28;18371;-60
2021/03/16 00:18:35;;;;;;;3.10;2.90;;;;;;;6.02;71.81;100498.03;683488;28;116049;-60
2021/03/16 00:18:57;;;;;;;3.03;2.83;;;;;;;6.00;71.87;100491.97;686220;28;39559;-63
2021/03/16 00:19:18;;;;;;;3.40;3.10;;;;;;;6.01;71.80;100496.34;687844;28;1239;-60
2021/03/16 00:19:40;;;;;;;3.50;3.20;;;;;;;6.03;71.96;100497.03;686850;28;22817;-61
2021/03/16 00:20:01;;;;;;;3.40;3.15;;;;;;;6.04;71.86;100497.91;685681;28;42720;-61
2021/03/16 00:20:22;;;;;;;3.70;3.30;;;;;;;6.04;71.96;100495.22;686306;28;22398;-61
2021/03/16 00:20:44;;;;;;;2.80;2.60;;;;;;;6.02;71.64;100500.72;686855;28;1964;-59
2021/03/16 00:21:05;;;;;;;2.90;2.70;;;;;;;6.05;71.72;100500.41;686693;28;26134;-61
2021/03/16 00:21:26;;;;;;;3.17;2.97;;;;;;;6.06;71.85;100502.09;686944;28;23428;-60
2021/03/16 00:21:47;;;;;;;3.13;2.92;;;;;;;6.05;71.61;100504.91;686932;28;11782;-61
2021/03/16 00:22:08;;;;;;;3.00;2.80;;;;;;;6.05;71.78;100504.91;688354;28;1217;-60
2021/03/16 00:22:29;;;;;;;3.00;2.80;;;;;;;6.03;71.57;100505.06;686862;28;22386;-61
2021/03/16 00:22:52;;;;;;;2.83;2.63;;;;;;;6.03;71.59;100502.41;687062;28;21540;-61
2021/03/16 00:23:13;;;;;;;2.92;2.72;;;;;;;6.02;71.81;100510.59;685985;28;46230;-61
2021/03/16 00:23:34;;;;;;;2.70;2.50;;;;;;;6.01;71.65;100487.47;687177;28;1553;-60
2021/03/16 00:23:55;;;;;;;2.90;2.70;;;;;;;6.04;71.72;100501.41;686312;28;11648;-61
2021/03/16 00:24:16;;;;;;;2.80;2.60;;;;;;;6.05;71.87;100500.41;687272;28;11257;-61
2021/03/16 00:24:38;;;;;;;3.17;2.88;;;;;;;6.03;71.67;100502.41;687727;28;22390;-61
2021/03/16 00:24:59;;;;;;;2.80;2.60;;;;;;;6.03;71.83;100507.75;687044;28;1212;-61
2021/03/16 00:25:20;;;;;;;2.50;2.40;;;;;;;6.02;71.72;100508.78;687249;28;1282;-61
2021/03/16 00:25:41;;;;;;;2.30;2.20;;;;;;;6.03;71.62;100501.56;686508;28;23669;-62
2021/03/16 00:26:02;;;;;;;2.38;2.28;;;;;;;6.00;71.82;100505.38;686559;28;19901;-61
2021/03/16 00:26:24;;;;;;;2.70;2.50;;;;;;;6.00;71.88;100507.22;686846;28;21544;-62
2021/03/16 00:26:45;;;;;;;2.67;2.47;;;;;;;6.01;71.79;100507.06;685609;28;45816;-61
2021/03/16 00:27:06;;;;;;;2.40;2.30;;;;;;;5.97;71.62;100502.16;687713;28;23491;-62
2021/03/16 00:27:28;;;;;;;2.40;2.30;;;;;;;6.00;71.86;100509.91;687106;28;1455;-61
2021/03/16 00:27:49;;;;;;;2.80;2.60;;;;;;;5.98;71.77;100501.19;686207;28;23564;-60
2021/03/16 00:28:10;;;;;;;2.80;2.60;;;;;;;6.00;71.77;100507.22;685942;28;46591;-60
2021/03/16 00:28:32;;;;;;;2.80;2.60;;;;;;;5.99;71.90;100511.75;687151;28;1525;-62
2021/03/16 00:28:53;;;;;;;2.50;2.40;;;;;;;5.98;71.88;100504.69;686906;28;21945;-62
2021/03/16 00:29:14;;;;;;;2.10;2.00;;;;;;;5.99;71.93;100510.91;687313;28;17875;-61
2021/03/16 00:29:36;;;;;;;2.53;2.30;;;;;;;5.98;71.91;100510.06;687572;28;17684;-61
2021/03/16 00:29:58;;;;;;;2.70;2.33;;;;;;;5.98;72.04;100510.06;684611;28;70312;-61
2021/03/16 00:30:19;;;;;;;2.40;2.30;;;;;;;5.98;71.95;100506.53;686896;28;23550;-60
2021/03/16 00:30:40;;;;;;;2.50;2.30;;;;;;;5.98;72.02;100509.22;686708;28;22554;-61
2021/03/16 00:31:02;;;;;;;2.40;2.30;;;;;;;5.98;72.01;100514.59;686653;28;23385;-60
2021/03/16 00:31:23;;;;;;;2.40;2.30;;;;;;;5.97;72.21;100510.22;685639;28;46296;-59
2021/03/16 00:31:44;;;;;;;2.60;2.40;;;;;;;5.97;72.13;100507.53;686664;28;21535;-60
2021/03/16 00:32:06;;;;;;;2.58;2.38;;;;;;;5.95;71.98;100505.81;687531;28;22383;-61
2021/03/16 00:32:28;;;;;;;2.55;2.35;;;;;;;5.98;72.07;100511.91;685857;28;44325;-60
2021/03/16 00:32:49;;;;;;;2.60;2.50;;;;;;;5.97;71.99;100515.56;685547;28;46418;-61
2021/03/16 00:33:10;;;;;;;3.10;2.90;;;;;;;5.97;72.08;100507.53;686276;28;21654;-61
2021/03/16 00:33:31;;;;;;;3.50;3.20;;;;;;;5.97;72.00;100508.38;686793;28;10869;-60
2021/03/16 00:33:52;;;;;;;3.33;3.13;;;;;;;5.97;72.13;100510.22;686434;28;23443;-61
2021/03/16 00:34:13;;;;;;;3.25;3.00;;;;;;;5.95;72.18;100516.53;685689;28;46362;-60
2021/03/16 00:34:36;;;;;;;3.20;2.90;;;;;;;5.95;72.06;100508.47;688084;28;1146;-60
2021/03/16 00:34:57;;;;;;;2.95;2.75;;;;;;;5.95;72.10;100507.66;686419;28;22609;-61
2021/03/16 00:35:18;;;;;;;3.00;2.80;;;;;;;5.96;72.31;100517.38;687073;28;22213;-62
2021/03/16 00:35:40;;;;;;;3.30;3.00;;;;;;;5.96;71.76;100520.06;686490;28;22211;-61
2021/03/16 00:36:01;;;;;;;3.20;3.00;;;;;;;5.96;72.16;100512.03;686009;28;46366;-62
2021/03/16 00:36:22;;;;;;;3.25;3.05;;;;;;;5.97;72.15;100518.25;686468;28;22382;-62
2021/03/16 00:36:43;;;;;;;3.30;3.10;;;;;;;5.96;72.22;100514.72;686456;28;22413;-61
2021/03/16 00:37:06;;;;;;;3.55;3.33;;;;;;;5.95;72.26;100521.88;687217;28;22395;-62
2021/03/16 00:37:27;;;;;;;3.65;3.38;;;;;;;5.96;71.93;100520.06;685279;28;67558;-61
2021/03/16 00:37:49;;;;;;;3.50;3.30;;;;;;;5.95;72.14;100516.53;686065;28;46314;-61
2021/03/16 00:38:11;;;;;;;3.40;3.20;;;;;;;5.95;71.87;100518.38;687349;28;907;-62
2021/03/16 00:38:32;;;;;;;3.58;3.38;;;;;;;5.90;72.03;100508.09;685820;28;38233;-62
2021/03/16 00:38:53;;;;;;;3.97;3.67;;;;;;;5.93;72.13;100517.69;687468;28;2668;-60
2021/03/16 00:39:14;;;;;;;3.80;3.50;;;;;;;5.94;71.99;100511.31;686791;28;23670;-61
2021/03/16 00:39:36;;;;;;;3.38;3.17;;;;;;;5.95;71.91;100518.38;687071;28;35310;-61
2021/03/16 00:39:58;;;;;;;3.40;3.20;;;;;;;5.95;72.28;100527.25;687021;28;2182;-62
2021/03/16 00:40:19;;;;;;;3.78;3.47;;;;;;;5.96;72.05;100522.75;687228;28;2415;-63
2021/03/16 00:40:42;;;;;;;3.88;3.58;;;;;;;5.95;71.95;100521.06;687406;28;1377;-62
2021/03/16 00:41:03;;;;;;;3.90;3.60;;;;;;;5.95;72.15;100524.56;687463;28;10565;-59
2021/03/16 00:41:24;;;;;;;3.80;3.60;;;;;;;5.97;71.88;100520.94;687681;28;1919;-61
2021/03/16 00:41:45;;;;;;;3.70;3.50;;;;;;;5.96;71.92;100525.44;686555;28;23492;-60
2021/03/16 00:42:07;;;;;;;3.60;3.40;;;;;;;5.98;72.15;100528.81;688134;28;15873;-61
2021/03/16 00:42:28;;;;;;;4.07;3.60;;;;;;;6.00;71.82;100528.69;687508;28;1387;-61
2021/03/16 00:42:49;;;;;;;4.00;3.60;;;;;;;5.99;71.99;100527.84;687327;28;2725;-62
2021/03/16 00:43:10;;;;;;;3.53;3.30;;;;;;;5.98;71.92;100534.19;686727;28;21591;-62
2021/03/16 00:43:34;;;;;;;3.55;3.30;;;;;;;5.97;71.76;100524.44;684319;28;92188;-62
2021/03/16 00:43:55;;;;;;;3.92;3.63;;;;;;;5.98;71.79;100534.19;686747;28;23457;-61
2021/03/16 00:44:17;;;;;;;4.00;3.70;;;;;;;5.98;71.92;100526.16;687410;28;1155;-62
2021/03/16 00:44:38;;;;;;;3.85;3.55;;;;;;;5.98;71.98;100530.69;687875;28;19546;-62
2021/03/16 00:45:00;;;;;;;3.75;3.45;;;;;;;5.98;71.92;100530.69;687477;28;1386;-61
2021/03/16 00:45:23;;;;;;;3.88;3.55;;;;;;;5.97;71.64;100526.28;687371;28;962;-60
2021/03/16 00:45:44;;;;;;;3.80;3.50;;;;;;;5.97;71.91;100535.16;684863;28;44307;-61
2021/03/16 00:46:06;;;;;;;3.75;3.45;;;;;;;5.97;71.83;100531.66;686218;28;22392;-62
2021/03/16 00:46:27;;;;;;;4.55;3.50;;;;;;;5.95;72.05;100529.09;686295;28;23441;-61
2021/03/16 00:46:48;;;;;;;3.60;3.40;;;;;;;5.93;72.01;100526.56;683174;28;23506;-60
2021/03/16 00:47:10;;;;;;;3.70;3.50;;;;;;;5.95;72.06;100537.13;681303;29;23463;-61
2021/03/16 00:47:37;;;;;;;3.75;3.55;;;;;;;5.94;72.07;100527.41;682979;28;1420;-66
2021/03/16 00:47:58;;;;;;;3.75;3.45;;;;;;;5.93;71.95;100531.09;679431;28;139092;-59
2021/03/16 00:48:20;;;;;;;3.75;3.45;;;;;;;5.92;72.07;100532.09;682216;28;46186;-61
2021/03/16 00:48:48;;;;;;;3.70;3.40;;;;;;;5.94;72.22;100533.63;682429;28;121198;-60
2021/03/16 00:49:09;;;;;;;3.75;3.45;;;;;;;5.93;72.07;100536.47;685846;28;23500;-59
2021/03/16 00:49:30;;;;;;;3.63;3.42;;;;;;;5.94;72.11;100530.09;685329;28;46447;-62
2021/03/16 00:49:52;;;;;;;4.00;3.70;;;;;;;5.94;72.30;100538.13;684132;28;43373;-61
2021/03/16 00:50:14;;;;;;;3.90;3.60;;;;;;;5.94;72.13;100535.44;687369;28;21549;-61
2021/03/16 00:50:35;;;;;;;3.83;3.53;;;;;;;5.94;72.14;100528.25;685356;28;45278;-59
2021/03/16 00:50:56;;;;;;;4.00;3.70;;;;;;;5.96;71.99;100538.84;688421;28;23476;-61
2021/03/16 00:51:18;;;;;;;3.70;3.40;;;;;;;5.92;72.11;100535.63;685956;28;44742;-62
2021/03/16 00:51:39;;;;;;;3.50;3.28;;;;;;;5.93;72.11;100533.78;684301;28;21525;-62
2021/03/16 00:52:01;;;;;;;3.85;3.58;;;;;;;5.94;72.11;100535.44;683257;28;40557;-60
2021/03/16 00:52:22;;;;;;;4.15;3.80;;;;;;;5.94;72.27;100533.63;680198;28;46292;-61
2021/03/16 00:52:44;;;;;;;4.20;3.85;;;;;;;5.94;72.19;100539.00;680897;29;44544;-61
2021/03/16 00:53:07;;;;;;;4.47;4.13;;;;;;;5.94;72.32;100530.09;678458;29;44395;-62
2021/03/16 00:53:29;;;;;;;4.47;4.18;;;;;;;5.94;72.27;100540.81;680826;28;38839;-61
2021/03/16 00:53:56;;;;;;;4.30;4.00;;;;;;;5.93;72.06;100544.50;681792;28;124817;-60
2021/03/16 00:54:18;;;;;;;4.10;3.80;;;;;;;5.88;72.25;100533.41;685078;28;2376;-62
2021/03/16 00:54:39;;;;;;;3.73;3.50;;;;;;;5.91;72.22;100541.13;686209;28;22382;-61
2021/03/16 00:55:06;;;;;;;4.20;3.90;;;;;;;5.91;72.09;100551.88;682203;28;69448;-62
2021/03/16 00:55:28;;;;;;;4.75;4.18;;;;;;;5.92;72.25;100534.75;679836;28;137966;-61
2021/03/16 00:55:49;;;;;;;4.20;3.83;;;;;;;5.90;72.19;100534.91;680423;29;23420;-59
2021/03/16 00:56:11;;;;;;;4.05;3.80;;;;;;;5.91;72.31;100541.97;681363;28;46505;-61
2021/03/16 00:56:32;;;;;;;4.50;4.10;;;;;;;5.92;72.29;100546.34;683763;28;21544;-61
2021/03/16 00:56:53;;;;;;;4.78;4.38;;;;;;;5.91;72.39;100539.28;684738;28;14816;-60
2021/03/16 00:57:14;;;;;;;4.35;4.05;;;;;;;5.90;72.12;100539.44;686691;28;15657;-61
2021/03/16 00:57:36;;;;;;;4.28;3.97;;;;;;;5.92;72.32;100532.09;688414;28;2139;-61
2021/03/16 00:57:57;;;;;;;4.80;4.40;;;;;;;5.92;72.17;100537.44;686167;28;47207;-61
2021/03/16 00:58:24;;;;;;;4.80;4.43;;;;;;;5.91;72.15;100541.97;686834;28;21583;-62
2021/03/16 00:58:45;;;;;;;5.00;4.60;;;;;;;5.95;72.05;100540.66;684306;28;99962;-61
2021/03/16 00:59:06;;;;;;;4.85;4.45;;;;;;;5.98;71.98;100541.41;687169;28;18354;-61
2021/03/16 00:59:36;;;;;;;5.00;4.50;;;;;;;5.96;71.91;100538.84;684574;28;84423;-62
2021/03/16 00:59:57;;;;;;;4.50;4.10;;;;;;;5.96;71.76;100541.50;686790;28;23505;-61
2021/03/16 01:00:19;;;;;;;4.10;3.80;;;;;;;5.97;72.09;100545.06;687224;28;45519;-62
2021/03/16 01:00:40;;;;;;;4.80;4.40;;;;;;;5.91;71.83;100533.09;685797;28;47473;-60
2021/03/16 01:01:05;;;;;;;4.90;4.47;;;;;;;5.93;71.91;100539.97;687727;28;1415;-60
2021/03/16 01:01:26;;;;;;;4.65;4.28;;;;;;;5.93;71.50;100539.13;684588;28;91739;-59
2021/03/16 01:01:47;;;;;;;4.50;4.10;;;;;;;5.92;71.96;100529.41;686353;28;22467;-60
2021/03/16 01:02:09;;;;;;;4.32;4.00;;;;;;;5.92;71.61;100532.09;686444;28;38809;-61
2021/03/16 01:02:30;;;;;;;4.55;4.20;;;;;;;5.93;72.02;100541.81;686815;28;20937;-60
2021/03/16 01:02:51;;;;;;;4.20;3.80;;;;;;;5.91;71.83;100535.78;688277;28;914;-59
2021/03/16 01:03:12;;;;;;;3.95;3.67;;;;;;;5.89;71.68;100546.66;687182;28;18685;-61
2021/03/16 01:03:34;;;;;;;4.28;3.97;;;;;;;5.91;71.87;100554.53;686710;28;20450;-61
2021/03/16 01:03:55;;;;;;;4.50;4.20;;;;;;;5.91;71.93;100554.53;686667;28;31698;-60
2021/03/16 01:04:16;;;;;;;4.95;4.55;;;;;;;5.90;71.96;100547.47;687133;28;20847;-61
2021/03/16 01:04:37;;;;;;;4.40;4.10;;;;;;;5.90;72.16;100550.16;685654;28;45246;-61
2021/03/16 01:04:58;;;;;;;4.90;4.50;;;;;;;5.90;71.84;100545.63;686796;28;23456;-60
2021/03/16 01:05:19;;;;;;;4.97;4.47;;;;;;;5.92;71.85;100553.53;687188;28;19724;-59
2021/03/16 01:05:41;;;;;;;4.32;4.00;;;;;;;5.90;72.00;100544.81;686596;28;22843;-62
2021/03/16 01:06:02;;;;;;;4.45;4.15;;;;;;;5.90;71.86;100560.88;686107;28;22213;-59
2021/03/16 01:06:24;;;;;;;4.20;3.90;;;;;;;5.91;71.84;100551.88;685898;28;44551;-57
2021/03/16 01:06:45;;;;;;;4.28;3.95;;;;;;;5.91;71.96;100554.53;686340;28;21536;-61
2021/03/16 01:07:06;;;;;;;4.45;4.15;;;;;;;5.92;71.97;100556.22;686823;28;23324;-57
2021/03/16 01:07:27;;;;;;;4.88;4.47;;;;;;;5.92;71.63;100551.72;686626;28;22360;-62
2021/03/16 01:07:48;;;;;;;4.38;4.07;;;;;;;5.92;71.85;100558.88;686769;28;44153;-61
2021/03/16 01:08:10;;;;;;;4.50;4.15;;;;;;;5.94;72.05;100560.44;686994;28;22433;-59
2021/03/16 01:08:31;;;;;;;4.28;3.97;;;;;;;5.95;71.97;100558.59;687141;28;12202;-60
2021/03/16 01:08:53;;;;;;;4.30;4.00;;;;;;;5.94;71.87;100551.53;686674;28;31171;-59
2021/03/16 01:09:14;;;;;;;4.43;4.13;;;;;;;5.92;71.71;100565.13;686939;28;21462;-59
2021/03/16 01:09:35;;;;;;;4.80;4.40;;;;;;;5.92;72.03;100559.75;686062;28;23495;-60
2021/03/16 01:09:56;;;;;;;4.38;4.07;;;;;;;5.92;71.86;100554.38;686883;28;23502;-59
2021/03/16 01:10:20;;;;;;;4.55;4.15;;;;;;;5.92;71.76;100558.88;687646;28;26924;-61
2021/03/16 01:10:41;;;;;;;4.57;4.18;;;;;;;5.90;72.06;100553.69;685017;28;68424;-62
2021/03/16 01:11:03;;;;;;;4.93;4.53;;;;;;;5.91;72.10;100558.06;685959;28;44935;-61
2021/03/16 01:11:24;;;;;;;4.50;4.10;;;;;;;5.90;71.89;100555.53;686689;28;22422;-62
2021/03/16 01:11:46;;;;;;;4.30;4.00;;;;;;;5.88;72.08;100546.81;685370;28;46299;-61
2021/03/16 01:12:07;;;;;;;4.47;4.18;;;;;;;5.89;72.12;100548.47;686835;28;23483;-61
2021/03/16 01:12:29;;;;;;;4.20;3.78;;;;;;;5.87;72.05;100559.34;686180;28;46258;-61
2021/03/16 01:12:50;;;;;;;3.92;3.53;;;;;;;5.89;72.06;100559.19;687933;28;22409;-58
2021/03/16 01:13:11;;;;;;;3.90;3.60;;;;;;;5.88;71.94;100557.53;686998;28;12716;-61
2021/03/16 01:13:32;;;;;;;4.43;3.83;;;;;;;5.87;72.11;100559.34;685582;28;42447;-60
2021/03/16 01:13:53;;;;;;;3.80;3.50;;;;;;;5.86;72.18;100562.16;686436;28;12803;-61
2021/03/16 01:14:14;;;;;;;3.67;3.38;;;;;;;5.86;72.30;100554.13;687682;28;918;-60
2021/03/16 01:14:36;;;;;;;3.58;3.38;;;;;;;5.86;71.95;100562.16;686665;28;22401;-61
2021/03/16 01:15:00;;;;;;;3.58;3.38;;;;;;;5.84;72.17;100556.97;685790;28;38650;-59
2021/03/16 01:15:26;;;;;;;4.03;3.60;;;;;;;5.83;72.14;100557.09;685348;28;62789;-62
2021/03/16 01:15:48;;;;;;;3.90;3.50;;;;;;;5.84;72.41;100561.47;685811;28;23668;-60
2021/03/16 01:16:09;;;;;;;3.78;3.47;;;;;;;5.80;72.36;100547.56;685535;28;46363;-61
2021/03/16 01:16:30;;;;;;;3.80;3.55;;;;;;;5.84;72.23;100558.81;686676;28;23805;-61
2021/03/16 01:16:52;;;;;;;3.95;3.65;;;;;;;5.85;72.22;100565.88;687080;28;1695;-61
2021/03/16 01:17:13;;;;;;;4.20;3.88;;;;;;;5.84;72.49;100558.81;686723;28;23511;-61
2021/03/16 01:17:36;;;;;;;3.70;3.40;;;;;;;5.83;72.35;100560.66;687507;28;21531;-61
2021/03/16 01:17:58;;;;;;;3.78;3.58;;;;;;;5.83;72.30;100563.34;685162;28;60795;-60
2021/03/16 01:18:19;;;;;;;3.55;3.35;;;;;;;5.82;72.28;100558.97;686811;28;38187;-60
2021/03/16 01:18:40;;;;;;;3.70;3.40;;;;;;;5.83;72.15;100559.78;687363;28;21515;-60
2021/03/16 01:19:01;;;;;;;3.88;3.58;;;;;;;5.82;72.19;100564.31;687608;28;15592;-61
2021/03/16 01:19:23;;;;;;;3.88;3.58;;;;;;;5.83;72.21;100565.16;687494;28;22419;-61
2021/03/16 01:19:44;;;;;;;3.60;3.30;;;;;;;5.82;72.20;100560.81;685942;28;47318;-61
2021/03/16 01:20:09;;;;;;;3.67;3.47;;;;;;;5.81;72.34;100564.47;688057;28;6058;-60
2021/03/16 01:20:32;;;;;;;3.72;3.47;;;;;;;5.81;72.55;100565.28;683627;28;114326;-61
2021/03/16 01:20:53;;;;;;;4.30;4.00;;;;;;;5.81;72.39;100562.63;686744;28;38817;-61
2021/03/16 01:21:14;;;;;;;3.90;3.60;;;;;;;5.80;72.33;100560.94;687249;28;23533;-62
2021/03/16 01:21:35;;;;;;;3.95;3.55;;;;;;;5.78;72.51;100558.44;686886;28;24105;-61
2021/03/16 01:21:56;;;;;;;3.53;3.33;;;;;;;5.80;72.48;100568.13;685837;28;46393;-59
2021/03/16 01:22:17;;;;;;;3.88;3.50;;;;;;;5.80;72.46;100565.44;687078;28;22406;-60
2021/03/16 01:22:38;;;;;;;3.92;3.63;;;;;;;5.78;72.48;100565.59;688432;28;23555;-59
2021/03/16 01:23:00;;;;;;;4.15;3.85;;;;;;;5.78;72.36;100565.59;687151;28;23309;-60
2021/03/16 01:23:21;;;;;;;3.80;3.58;;;;;;;5.80;72.47;100560.09;687302;28;16024;-61
2021/03/16 01:23:43;;;;;;;3.70;3.50;;;;;;;5.77;72.55;100556.72;687023;28;19387;-61
2021/03/16 01:24:05;;;;;;;3.80;3.50;;;;;;;5.79;72.59;100567.28;685545;28;61507;-61
2021/03/16 01:24:26;;;;;;;3.80;3.50;;;;;;;5.76;72.47;100563.06;687206;28;22416;-61
2021/03/16 01:24:47;;;;;;;3.95;3.65;;;;;;;5.77;72.58;100561.25;687748;28;894;-61
2021/03/16 01:25:10;;;;;;;4.13;3.72;;;;;;;5.77;72.63;100564.75;688931;28;1244;-60
2021/03/16 01:25:31;;;;;;;3.92;3.70;;;;;;;5.76;72.28;100563.06;686709;28;31580;-61
2021/03/16 01:25:52;;;;;;;4.00;3.70;;;;;;;5.77;72.82;100572.81;686118;28;47276;-59
2021/03/16 01:26:13;;;;;;;4.00;3.70;;;;;;;5.76;72.65;100560.38;687658;28;6095;-61
2021/03/16 01:26:35;;;;;;;3.50;3.30;;;;;;;5.75;72.51;100565.91;687794;28;13338;-60
2021/03/16 01:26:56;;;;;;;3.83;3.53;;;;;;;5.75;72.67;100571.25;687370;28;17157;-61
2021/03/16 01:27:17;;;;;;;4.00;3.70;;;;;;;5.76;72.61;100568.44;687893;28;1467;-61
2021/03/16 01:27:39;;;;;;;3.97;3.67;;;;;;;5.77;72.71;100558.56;689068;28;915;-59
2021/03/16 01:28:00;;;;;;;4.00;3.70;;;;;;;5.76;72.62;100571.09;686719;28;29518;-59
2021/03/16 01:28:24;;;;;;;3.53;3.33;;;;;;;5.74;72.84;100565.06;687096;28;14667;-61
2021/03/16 01:28:46;;;;;;;3.60;3.40;;;;;;;5.76;72.83;100562.22;688171;28;1023;-61
2021/03/16 01:29:07;;;;;;;3.50;3.25;;;;;;;5.76;72.82;100562.22;686974;28;41414;-59
2021/03/16 01:29:28;;;;;;;3.80;3.50;;;;;;;5.76;72.83;100571.09;688135;28;6864;-59
2021/03/16 01:29:49;;;;;;;3.70;3.40;;;;;;;5.76;72.78;100570.28;689369;28;22415;-62
2021/03/16 01:30:11;;;;;;;3.72;3.42;;;;;;;5.76;72.87;100572.94;687498;28;23549;-61
2021/03/16 01:30:33;;;;;;;4.22;3.83;;;;;;;5.76;72.61;100576.47;685776;28;46476;-59
2021/03/16 01:30:56;;;;;;;3.97;3.67;;;;;;;5.75;72.58;100569.44;686620;28;30606;-61
2021/03/16 01:31:17;;;;;;;3.60;3.40;;;;;;;5.76;72.95;100570.28;685035;28;69238;-60
2021/03/16 01:31:38;;;;;;;3.72;3.45;;;;;;;5.76;72.88;100575.63;686897;28;23494;-58
2021/03/16 01:32:00;;;;;;;3.83;3.53;;;;;;;5.76;72.69;100570.28;687161;28;7638;-61
2021/03/16 01:32:21;;;;;;;3.90;3.60;;;;;;;5.77;72.70;100570.13;686742;28;34769;-62
2021/03/16 01:32:42;;;;;;;3.95;3.65;;;;;;;5.76;72.96;100570.28;688970;28;7806;-61
2021/03/16 01:33:03;;;;;;;3.80;3.50;;;;;;;5.77;72.65;100574.66;687843;28;11918;-62
2021/03/16 01:33:24;;;;;;;3.63;3.33;;;;;;;5.76;72.70;100570.28;687306;28;23537;-57
2021/03/16 01:33:46;;;;;;;3.40;3.20;;;;;;;5.76;72.97;100579.16;687478;28;22472;-62
2021/03/16 01:34:07;;;;;;;3.40;3.20;;;;;;;5.75;72.61;100569.44;686814;28;45313;-60
2021/03/16 01:34:28;;;;;;;3.88;3.58;;;;;;;5.77;72.93;100575.47;687474;28;22244;-59
2021/03/16 01:34:49;;;;;;;3.80;3.50;;;;;;;5.78;72.70;100563.78;687423;28;22375;-62
2021/03/16 01:35:12;;;;;;;3.88;3.58;;;;;;;5.78;72.77;100569.16;688341;28;22432;-61
2021/03/16 01:35:34;;;;;;;3.70;3.40;;;;;;;5.77;72.50;100569.28;684753;28;92337;-61
2021/03/16 01:35:55;;;;;;;3.50;3.30;;;;;;;5.78;72.72;100571.81;686983;28;18333;-62
2021/03/16 01:36:17;;;;;;;3.40;3.20;;;;;;;5.81;72.68;100570.66;688220;28;1150;-60
2021/03/16 01:36:40;;;;;;;3.67;3.38;;;;;;;5.81;72.70;100573.34;687577;28;1406;-62
2021/03/16 01:37:01;;;;;;;3.60;3.30;;;;;;;5.80;72.69;100570.81;687617;28;22330;-61
2021/03/16 01:37:22;;;;;;;3.45;3.25;;;;;;;5.80;72.53;100573.50;687492;28;20547;-62
2021/03/16 01:37:44;;;;;;;3.70;3.40;;;;;;;5.83;72.59;100575.88;687891;28;10095;-60
2021/03/16 01:38:06;;;;;;;3.45;3.15;;;;;;;5.81;72.49;100575.19;687589;28;44610;-61
2021/03/16 01:38:28;;;;;;;3.65;3.35;;;;;;;5.81;72.55;100575.19;686316;28;46332;-60
2021/03/16 01:38:50;;;;;;;3.67;3.47;;;;;;;5.81;72.48;100583.22;687548;28;13655;-62
2021/03/16 01:39:12;;;;;;;3.60;3.40;;;;;;;5.81;72.59;100577.88;688153;28;1634;-61
2021/03/16 01:39:34;;;;;;;3.45;3.25;;;;;;;5.80;72.45;100578.84;688218;28;938;-61
2021/03/16 01:39:56;;;;;;;3.13;2.92;;;;;;;5.77;72.66;100571.97;687430;28;4133;-61
2021/03/16 01:40:20;;;;;;;3.05;2.85;;;;;;;5.80;72.79;100582.41;687432;28;21357;-59
2021/03/16 01:40:43;;;;;;;3.42;3.22;;;;;;;5.80;72.67;100578.84;687674;28;36322;-61
2021/03/16 01:41:04;;;;;;;3.80;3.50;;;;;;;5.80;72.57;100573.50;687015;28;25878;-60
2021/03/16 01:41:25;;;;;;;3.97;3.65;;;;;;;5.80;72.61;100579.72;687757;28;17406;-59
2021/03/16 01:41:46;;;;;;;4.10;3.50;;;;;;;5.79;72.73;100578.03;687279;28;18896;-59
2021/03/16 01:42:08;;;;;;;4.30;3.47;;;;;;;5.78;72.61;100579.88;687531;28;23377;-61
2021/03/16 01:42:29;;;;;;;3.83;3.53;;;;;;;5.80;72.91;100581.53;688122;28;1136;-60
2021/03/16 01:42:52;;;;;;;3.95;3.65;;;;;;;5.81;72.78;100575.19;687942;28;1986;-59
2021/03/16 01:43:17;;;;;;;3.80;3.50;;;;;;;5.78;72.61;100579.88;688995;28;1119;-62
2021/03/16 01:43:39;;;;;;;3.25;3.05;;;;;;;5.80;72.75;100582.41;688389;28;15919;-61
2021/03/16 01:44:03;;;;;;;3.80;3.50;;;;;;;5.80;72.86;100586.88;688363;28;15682;-61
2021/03/16 01:44:24;;;;;;;3.45;3.20;;;;;;;5.80;72.83;100587.75;687910;28;22645;-62
2021/03/16 01:44:47;;;;;;;3.90;3.60;;;;;;;5.80;72.71;100576.16;689494;28;922;-61
2021/03/16 01:45:15;;;;;;;4.07;3.78;;;;;;;5.81;72.89;100581.38;687529;28;37144;-61